createdAt,value
2018-08-08T00:00:31.587Z,21.9
2018-08-08T00:01:31.529Z,21.9
2018-08-08T00:02:33.132Z,21.9
2018-08-08T00:03:33.016Z,22
2018-08-08T00:04:32.920Z,22.1
2018-08-08T00:05:34.167Z,22
2018-08-08T00:06:34.293Z,22.1
2018-08-08T00:07:37.898Z,22.1
2018-08-08T00:08:39.376Z,22.1
2018-08-08T00:09:39.280Z,22.1
2018-08-08T00:10:39.219Z,22.1
2018-08-08T00:11:39.154Z,22
2018-08-08T00:12:39.784Z,22
2018-08-08T00:13:41.253Z,21.9
2018-08-08T00:14:41.164Z,21.9
2018-08-08T00:15:50.071Z,21.9
2018-08-08T00:16:49.997Z,21.9
2018-08-08T00:17:50.596Z,21.9
2018-08-08T00:18:54.359Z,21.9
2018-08-08T00:19:54.424Z,21.9
2018-08-08T00:20:54.322Z,21.9
2018-08-08T00:21:55.797Z,21.8
2018-08-08T00:22:58.718Z,21.8
2018-08-08T00:23:58.601Z,21.8
2018-08-08T00:24:59.164Z,21.7
2018-08-08T00:26:09.238Z,21.7
2018-08-08T00:27:09.165Z,21.6
2018-08-08T00:28:12.413Z,21.5
2018-08-08T00:29:12.313Z,21.6
2018-08-08T00:30:12.904Z,21.6
2018-08-08T00:31:14.027Z,21.6
2018-08-08T00:32:13.933Z,21.5
2018-08-08T00:33:14.780Z,21.5
2018-08-08T00:34:14.683Z,21.5
2018-08-08T00:35:21.533Z,21.5
2018-08-08T00:36:23.470Z,21.4
2018-08-08T00:37:23.385Z,21.4
2018-08-08T00:38:26.982Z,21.4
2018-08-08T00:39:26.926Z,21.4
2018-08-08T00:40:27.572Z,21.4
2018-08-08T00:41:27.704Z,21.4
2018-08-08T00:42:27.623Z,21.4
2018-08-08T00:43:28.212Z,21.5
2018-08-08T00:44:28.118Z,21.4
2018-08-08T00:45:28.254Z,21.5
2018-08-08T00:46:31.894Z,21.5
2018-08-08T00:47:35.167Z,21.5
2018-08-08T00:48:35.141Z,21.5
2018-08-08T00:49:38.823Z,21.5
2018-08-08T00:50:41.777Z,21.6
2018-08-08T00:51:44.585Z,21.5
2018-08-08T00:52:44.493Z,21.5
2018-08-08T00:53:51.068Z,21.5
2018-08-08T00:54:50.975Z,21.6
2018-08-08T00:55:52.465Z,21.5
2018-08-08T00:56:53.495Z,21.5
2018-08-08T00:57:56.179Z,21.5
2018-08-08T00:58:56.100Z,21.5
2018-08-08T00:59:58.038Z,21.5
2018-08-08T01:01:00.827Z,21.5
2018-08-08T01:02:00.747Z,21.4
2018-08-08T01:03:04.756Z,21.4
2018-08-08T01:04:04.687Z,21.4
2018-08-08T01:05:05.261Z,21.4
2018-08-08T01:06:05.386Z,21.4
2018-08-08T01:07:06.439Z,21.4
2018-08-08T01:08:06.492Z,21.4
2018-08-08T01:09:06.598Z,21.4
2018-08-08T01:10:09.282Z,21.4
2018-08-08T01:11:09.192Z,21.4
2018-08-08T01:12:12.099Z,21.4
2018-08-08T01:13:12.690Z,21.4
2018-08-08T01:14:13.424Z,21.4
2018-08-08T01:15:17.370Z,21.3
2018-08-08T01:16:17.980Z,21.3
2018-08-08T01:17:21.325Z,21.4
2018-08-08T01:18:24.935Z,21.4
2018-08-08T01:19:27.852Z,21.4
2018-08-08T01:20:30.834Z,21.3
2018-08-08T01:21:31.440Z,21.3
2018-08-08T01:22:31.344Z,21.4
2018-08-08T01:23:31.933Z,21.4
2018-08-08T01:24:31.874Z,21.4
2018-08-08T01:25:33.348Z,21.3
2018-08-08T01:26:33.257Z,21.4
2018-08-08T01:27:37.074Z,21.3
2018-08-08T01:28:36.978Z,21.3
2018-08-08T01:29:38.477Z,21.2
2018-08-08T01:30:44.118Z,21.2
2018-08-08T01:31:44.017Z,21.2
2018-08-08T01:32:43.924Z,21.2
2018-08-08T01:33:50.526Z,21.1
2018-08-08T01:34:50.470Z,21.1
2018-08-08T01:35:51.038Z,21.1
2018-08-08T01:36:50.933Z,21.1
2018-08-08T01:37:51.270Z,21.1
2018-08-08T01:38:57.916Z,21.1
2018-08-08T01:39:57.855Z,21.1
2018-08-08T01:40:59.339Z,21
2018-08-08T01:41:59.934Z,21.1
2018-08-08T01:43:00.521Z,21.1
2018-08-08T01:44:00.432Z,21.1
2018-08-08T01:45:04.858Z,21.1
2018-08-08T01:46:06.337Z,21.1
2018-08-08T01:47:06.938Z,21.1
2018-08-08T01:48:13.932Z,21.1
2018-08-08T01:49:14.068Z,21.2
2018-08-08T01:50:14.006Z,21.2
2018-08-08T01:51:15.716Z,21.2
2018-08-08T01:52:15.633Z,21.2
2018-08-08T01:53:23.620Z,21.2
2018-08-08T01:54:28.915Z,21.2
2018-08-08T01:55:28.857Z,21.1
2018-08-08T01:56:28.751Z,21.1
2018-08-08T01:57:36.522Z,21.1
2018-08-08T01:58:37.880Z,21
2018-08-08T01:59:37.776Z,21
2018-08-08T02:00:41.683Z,20.9
2018-08-08T02:01:41.586Z,21
2018-08-08T02:02:43.172Z,21
2018-08-08T02:03:43.080Z,21
2018-08-08T02:04:43.657Z,20.9
2018-08-08T02:05:47.342Z,20.9
2018-08-08T02:06:50.861Z,20.9
2018-08-08T02:07:51.449Z,20.9
2018-08-08T02:08:55.221Z,20.9
2018-08-08T02:09:55.357Z,20.9
2018-08-08T02:10:55.284Z,20.9
2018-08-08T02:11:55.208Z,20.9
2018-08-08T02:12:55.327Z,20.9
2018-08-08T02:13:55.864Z,20.9
2018-08-08T02:14:55.823Z,20.9
2018-08-08T02:15:55.735Z,20.9
2018-08-08T02:16:56.340Z,20.9
2018-08-08T02:18:01.068Z,20.8
2018-08-08T02:19:05.095Z,20.8
2018-08-08T02:20:05.220Z,20.7
2018-08-08T02:21:05.821Z,20.7
2018-08-08T02:22:06.188Z,20.7
2018-08-08T02:23:06.112Z,20.8
2018-08-08T02:24:07.252Z,20.8
2018-08-08T02:25:07.158Z,20.8
2018-08-08T02:26:16.744Z,20.8
2018-08-08T02:27:17.314Z,20.8
2018-08-08T02:28:17.220Z,20.7
2018-08-08T02:29:22.056Z,20.6
2018-08-08T02:30:22.673Z,20.6
2018-08-08T02:31:23.299Z,20.6
2018-08-08T02:32:23.924Z,20.7
2018-08-08T02:33:24.059Z,20.7
2018-08-08T02:34:24.648Z,20.7
2018-08-08T02:35:25.252Z,20.7
2018-08-08T02:36:25.878Z,20.8
2018-08-08T02:37:26.355Z,20.7
2018-08-08T02:38:27.568Z,20.7
2018-08-08T02:39:27.939Z,20.8
2018-08-08T02:40:27.852Z,20.8
2018-08-08T02:41:32.382Z,20.7
2018-08-08T02:42:32.285Z,20.7
2018-08-08T02:43:33.120Z,20.7
2018-08-08T02:44:33.700Z,20.7
2018-08-08T02:45:33.606Z,20.7
2018-08-08T02:46:33.550Z,20.7
2018-08-08T02:47:34.136Z,20.6
2018-08-08T02:48:35.285Z,20.6
2018-08-08T02:49:36.082Z,20.6
2018-08-08T02:50:35.996Z,20.6
2018-08-08T02:51:36.189Z,20.5
2018-08-08T02:52:36.094Z,20.5
2018-08-08T02:53:36.043Z,20.5
2018-08-08T02:54:37.535Z,20.5
2018-08-08T02:55:37.467Z,20.6
2018-08-08T02:56:37.410Z,20.6
2018-08-08T02:57:37.585Z,20.5
2018-08-08T02:58:37.485Z,20.5
2018-08-08T02:59:41.334Z,20.4
2018-08-08T03:00:41.266Z,20.4
2018-08-08T03:01:48.149Z,20.3
2018-08-08T03:02:48.091Z,20.3
2018-08-08T03:03:48.682Z,20.3
2018-08-08T03:04:55.322Z,20.2
2018-08-08T03:05:55.224Z,20.3
2018-08-08T03:06:55.828Z,20.3
2018-08-08T03:07:55.779Z,20.3
2018-08-08T03:08:56.712Z,20.3
2018-08-08T03:09:58.891Z,20.3
2018-08-08T03:10:59.280Z,20.3
2018-08-08T03:12:03.696Z,20.3
2018-08-08T03:13:03.612Z,20.4
2018-08-08T03:14:03.508Z,20.4
2018-08-08T03:15:03.404Z,20.5
2018-08-08T03:16:14.259Z,20.5
2018-08-08T03:17:14.183Z,20.5
2018-08-08T03:18:14.794Z,20.5
2018-08-08T03:19:15.719Z,20.5
2018-08-08T03:20:20.022Z,20.6
2018-08-08T03:21:26.600Z,20.6
2018-08-08T03:22:27.212Z,20.5
2018-08-08T03:23:28.119Z,20.6
2018-08-08T03:24:34.683Z,20.5
2018-08-08T03:25:34.600Z,20.6
2018-08-08T03:26:34.506Z,20.6
2018-08-08T03:27:44.785Z,20.6
2018-08-08T03:28:44.983Z,20.7
2018-08-08T03:29:45.579Z,20.7
2018-08-08T03:30:54.706Z,20.6
2018-08-08T03:32:05.281Z,20.6
2018-08-08T03:33:05.908Z,20.5
2018-08-08T03:34:09.488Z,20.6
2018-08-08T03:35:10.089Z,20.6
2018-08-08T03:36:10.027Z,20.5
2018-08-08T03:37:10.614Z,20.5
2018-08-08T03:38:12.600Z,20.6
2018-08-08T03:39:13.218Z,20.5
2018-08-08T03:40:13.137Z,20.5
2018-08-08T03:41:23.053Z,20.5
2018-08-08T03:42:24.957Z,20.5
2018-08-08T03:43:25.512Z,20.5
2018-08-08T03:44:26.183Z,20.4
2018-08-08T03:45:26.777Z,20.4
2018-08-08T03:46:26.959Z,20.4
2018-08-08T03:47:26.870Z,20.4
2018-08-08T03:48:33.614Z,20.3
2018-08-08T03:49:36.801Z,20.3
2018-08-08T03:50:37.721Z,20.4
2018-08-08T03:51:39.984Z,20.3
2018-08-08T03:52:42.919Z,20.3
2018-08-08T03:53:43.096Z,20.3
2018-08-08T03:54:44.725Z,20.3
2018-08-08T03:55:44.636Z,20.4
2018-08-08T03:56:49.077Z,20.4
2018-08-08T03:57:53.170Z,20.4
2018-08-08T03:58:55.221Z,20.4
2018-08-08T03:59:56.071Z,20.4
2018-08-08T04:00:56.253Z,20.4
2018-08-08T04:02:00.860Z,20.4
2018-08-08T04:03:01.493Z,20.5
2018-08-08T04:04:01.438Z,20.4
2018-08-08T04:05:11.046Z,20.5
2018-08-08T04:06:11.896Z,20.4
2018-08-08T04:07:12.035Z,20.5
2018-08-08T04:08:14.859Z,20.4
2018-08-08T04:09:15.388Z,20.4
2018-08-08T04:10:15.876Z,20.4
2018-08-08T04:11:15.799Z,20.4
2018-08-08T04:12:20.242Z,20.4
2018-08-08T04:13:23.175Z,20.4
2018-08-08T04:14:27.905Z,20.5
2018-08-08T04:15:40.098Z,20.6
2018-08-08T04:16:43.690Z,20.6
2018-08-08T04:17:43.599Z,20.6
2018-08-08T04:18:44.438Z,20.6
2018-08-08T04:19:45.043Z,20.6
2018-08-08T04:20:44.955Z,20.6
2018-08-08T04:21:48.428Z,20.6
2018-08-08T04:23:02.337Z,20.6
2018-08-08T04:24:09.317Z,20.7
2018-08-08T04:25:11.003Z,20.7
2018-08-08T04:26:11.602Z,20.6
2018-08-08T04:27:12.854Z,20.6
2018-08-08T04:28:12.750Z,20.6
2018-08-08T04:29:13.103Z,20.7
2018-08-08T04:30:13.028Z,20.6
2018-08-08T04:31:17.382Z,20.6
2018-08-08T04:32:17.299Z,20.5
2018-08-08T04:33:17.707Z,20.5
2018-08-08T04:34:17.639Z,20.4
2018-08-08T04:35:21.351Z,20.4
2018-08-08T04:36:24.266Z,20.4
2018-08-08T04:37:27.551Z,20.5
2018-08-08T04:38:28.141Z,20.4
2018-08-08T04:39:29.039Z,20.4
2018-08-08T04:40:28.997Z,20.4
2018-08-08T04:41:31.175Z,20.4
2018-08-08T04:42:31.092Z,20.4
2018-08-08T04:43:32.232Z,20.4
2018-08-08T04:44:33.263Z,20.4
2018-08-08T04:45:33.419Z,20.5
2018-08-08T04:46:37.157Z,20.4
2018-08-08T04:47:40.715Z,20.4
2018-08-08T04:48:41.650Z,20.4
2018-08-08T04:49:42.254Z,20.4
2018-08-08T04:50:49.937Z,20.5
2018-08-08T04:51:50.710Z,20.6
2018-08-08T04:52:50.850Z,20.5
2018-08-08T04:53:54.515Z,20.5
2018-08-08T04:54:55.980Z,20.6
2018-08-08T04:55:55.905Z,20.6
2018-08-08T04:56:58.678Z,20.6
2018-08-08T04:58:23.186Z,20.6
2018-08-08T04:59:23.079Z,20.4
2018-08-08T05:00:27.681Z,20.5
2018-08-08T05:01:31.112Z,20.5
2018-08-08T05:02:31.264Z,20.4
2018-08-08T05:03:31.847Z,20.5
2018-08-08T05:04:32.435Z,20.5
2018-08-08T05:05:36.846Z,20.4
2018-08-08T05:06:37.453Z,20.4
2018-08-08T05:07:39.024Z,20.5
2018-08-08T05:08:38.926Z,20.5
2018-08-08T05:09:39.735Z,20.5
2018-08-08T05:10:47.593Z,20.5
2018-08-08T05:11:47.731Z,20.6
2018-08-08T05:12:47.644Z,20.6
2018-08-08T05:13:51.929Z,20.7
2018-08-08T05:14:52.518Z,20.7
2018-08-08T05:15:52.670Z,20.8
2018-08-08T05:16:52.597Z,20.9
2018-08-08T05:17:53.209Z,21
2018-08-08T05:18:56.627Z,21.1
2018-08-08T05:19:57.311Z,21.2
2018-08-08T05:20:57.726Z,21.3
2018-08-08T05:22:01.217Z,21.5
2018-08-08T05:23:04.016Z,21.6
2018-08-08T05:24:04.615Z,21.8
2018-08-08T05:25:09.331Z,21.9
2018-08-08T05:26:21.938Z,22.1
2018-08-08T05:27:22.550Z,22.2
2018-08-08T05:28:22.485Z,22.3
2018-08-08T05:29:25.755Z,22.5
2018-08-08T05:30:29.076Z,22.7
2018-08-08T05:31:29.660Z,22.8
2018-08-08T05:32:30.309Z,23
2018-08-08T05:33:34.446Z,23.1
2018-08-08T05:34:35.029Z,23.3
2018-08-08T05:35:35.814Z,23.4
2018-08-08T05:36:48.520Z,23.5
2018-08-08T05:38:01.209Z,23.6
2018-08-08T05:39:01.117Z,23.7
2018-08-08T05:40:02.554Z,23.8
2018-08-08T05:41:05.637Z,23.8
2018-08-08T05:42:07.229Z,24
2018-08-08T05:43:08.060Z,24.1
2018-08-08T05:44:08.428Z,24.3
2018-08-08T05:45:11.839Z,24.5
2018-08-08T05:46:21.660Z,24.6
2018-08-08T05:47:21.572Z,24.8
2018-08-08T05:48:21.490Z,25
2018-08-08T05:49:22.059Z,25.1
2018-08-08T05:50:22.956Z,25.2
2018-08-08T05:51:23.073Z,25.2
2018-08-08T05:52:24.655Z,25.4
2018-08-08T05:53:24.609Z,25.5
2018-08-08T05:54:25.207Z,25.7
2018-08-08T05:55:25.117Z,25.9
2018-08-08T05:56:26.637Z,26
2018-08-08T05:57:26.546Z,26.1
2018-08-08T05:58:26.486Z,26.3
2018-08-08T05:59:27.079Z,26.5
2018-08-08T06:00:26.995Z,26.5
2018-08-08T06:01:27.650Z,26.6
2018-08-08T06:02:28.269Z,26.5
2018-08-08T06:03:28.453Z,26.2
2018-08-08T06:04:29.278Z,25.9
2018-08-08T06:05:29.181Z,25.7
2018-08-08T06:06:29.977Z,25.7
2018-08-08T06:07:29.894Z,25.5
2018-08-08T06:08:29.823Z,25.4
2018-08-08T06:09:31.305Z,25.2
2018-08-08T06:10:31.217Z,25.2
2018-08-08T06:11:33.944Z,25
2018-08-08T06:12:34.097Z,25.1
2018-08-08T06:13:34.039Z,25
2018-08-08T06:14:46.809Z,25
2018-08-08T06:15:47.711Z,25
2018-08-08T06:16:49.408Z,25
2018-08-08T06:17:49.323Z,24.9
2018-08-08T06:18:50.184Z,24.7
2018-08-08T06:19:50.537Z,24.8
2018-08-08T06:20:50.689Z,24.7
2018-08-08T06:21:50.596Z,24.7
2018-08-08T06:22:51.186Z,24.6
2018-08-08T06:23:51.124Z,24.5
2018-08-08T06:24:51.719Z,24.6
2018-08-08T06:25:51.626Z,24.5
2018-08-08T06:27:01.987Z,24.4
2018-08-08T06:28:01.903Z,24.3
2018-08-08T06:29:01.862Z,24.1
2018-08-08T06:30:01.785Z,23.7
2018-08-08T06:31:01.708Z,23.6
2018-08-08T06:32:05.102Z,23.3
2018-08-08T06:33:07.730Z,23.2
2018-08-08T06:34:07.653Z,23
2018-08-08T06:35:07.599Z,22.9
2018-08-08T06:36:10.858Z,22.8
2018-08-08T06:37:11.213Z,22.8
2018-08-08T06:38:12.774Z,22.8
2018-08-08T06:39:12.700Z,22.8
2018-08-08T06:40:16.708Z,22.8
2018-08-08T06:41:16.641Z,22.8
2018-08-08T06:42:17.474Z,22.8
2018-08-08T06:43:17.374Z,22.7
2018-08-08T06:44:17.984Z,22.7
2018-08-08T06:45:17.888Z,22.8
2018-08-08T06:46:18.494Z,23
2018-08-08T06:47:19.569Z,23
2018-08-08T06:48:20.162Z,23.1
2018-08-08T06:49:20.077Z,23.3
2018-08-08T06:50:19.990Z,23.8
2018-08-08T06:51:19.919Z,24.2
2018-08-08T06:52:19.845Z,24.4
2018-08-08T06:53:19.758Z,24.7
2018-08-08T06:54:19.694Z,24.8
2018-08-08T06:55:20.273Z,24.9
2018-08-08T06:56:20.180Z,25
2018-08-08T06:57:20.889Z,25.3
2018-08-08T06:58:20.798Z,25.5
2018-08-08T06:59:20.727Z,25.6
2018-08-08T07:00:23.198Z,25.7
2018-08-08T07:01:23.113Z,25.6
2018-08-08T07:02:23.743Z,25.6
2018-08-08T07:03:23.656Z,25.6
2018-08-08T07:04:23.855Z,25.6
2018-08-08T07:05:24.609Z,25.6
2018-08-08T07:06:24.803Z,25.7
2018-08-08T07:07:26.167Z,25.8
2018-08-08T07:08:26.061Z,26
2018-08-08T07:09:26.019Z,26.2
2018-08-08T07:10:35.599Z,26.4
2018-08-08T07:11:35.507Z,26.5
2018-08-08T07:12:35.429Z,26.7
2018-08-08T07:13:38.318Z,26.8
2018-08-08T07:14:42.152Z,26.8
2018-08-08T07:15:48.607Z,26.9
2018-08-08T07:16:49.527Z,27
2018-08-08T07:17:51.407Z,27.1
2018-08-08T07:18:51.335Z,27.2
2018-08-08T07:19:51.699Z,27.1
2018-08-08T07:20:51.935Z,27.1
2018-08-08T07:21:52.090Z,27.3
2018-08-08T07:22:58.953Z,27.4
2018-08-08T07:23:58.863Z,27.6
2018-08-08T07:24:59.458Z,27.5
2018-08-08T07:26:02.465Z,27.7
2018-08-08T07:27:03.390Z,27.9
2018-08-08T07:28:04.395Z,28
2018-08-08T07:29:07.105Z,27.8
2018-08-08T07:30:07.066Z,27.8
2018-08-08T07:31:07.227Z,27.8
2018-08-08T07:32:08.199Z,27.9
2018-08-08T07:33:08.419Z,28
2018-08-08T07:34:11.287Z,28.1
2018-08-08T07:35:11.458Z,28.2
2018-08-08T07:36:11.628Z,28.1
2018-08-08T07:37:11.531Z,28.3
2018-08-08T07:38:12.128Z,28.4
2018-08-08T07:39:12.709Z,28.4
2018-08-08T07:40:12.632Z,28.5
2018-08-08T07:41:13.703Z,28.7
2018-08-08T07:42:14.512Z,28.8
2018-08-08T07:43:14.413Z,29.1
2018-08-08T07:44:14.315Z,29
2018-08-08T07:45:14.477Z,29
2018-08-08T07:46:14.508Z,28.9
2018-08-08T07:47:14.644Z,28.9
2018-08-08T07:48:15.995Z,29
2018-08-08T07:49:16.576Z,29.2
2018-08-08T07:50:16.499Z,29.2
2018-08-08T07:51:23.032Z,29.2
2018-08-08T07:52:22.939Z,29.1
2018-08-08T07:53:27.748Z,29.2
2018-08-08T07:54:27.869Z,29.2
2018-08-08T07:55:27.791Z,29
2018-08-08T07:56:27.922Z,29
2018-08-08T07:57:27.849Z,28.9
2018-08-08T07:58:29.952Z,29.2
2018-08-08T07:59:32.707Z,29.3
2018-08-08T08:00:32.618Z,29.5
2018-08-08T08:01:35.611Z,29.6
2018-08-08T08:02:35.513Z,29.6
2018-08-08T08:03:38.456Z,29.7
2018-08-08T08:04:39.375Z,29.9
2018-08-08T08:05:41.976Z,29.9
2018-08-08T08:06:41.886Z,29.9
2018-08-08T08:07:42.065Z,29.9
2018-08-08T08:08:42.610Z,30.1
2018-08-08T08:09:42.511Z,29.8
2018-08-08T08:10:46.403Z,29.9
2018-08-08T08:11:46.301Z,29.8
2018-08-08T08:12:50.500Z,29.4
2018-08-08T08:13:50.736Z,29.6
2018-08-08T08:14:57.586Z,29.7
2018-08-08T08:15:57.524Z,29.6
2018-08-08T08:16:58.136Z,29.7
2018-08-08T08:18:01.831Z,29.5
2018-08-08T08:19:02.212Z,29.7
2018-08-08T08:20:02.165Z,29.8
2018-08-08T08:21:03.372Z,30
2018-08-08T08:22:03.286Z,29.8
2018-08-08T08:23:06.556Z,30.1
2018-08-08T08:24:06.651Z,30.3
2018-08-08T08:25:09.759Z,30.4
2018-08-08T08:26:09.698Z,30.2
2018-08-08T08:27:09.839Z,30.2
2018-08-08T08:28:09.762Z,30.2
2018-08-08T08:29:15.895Z,30
2018-08-08T08:30:15.807Z,30
2018-08-08T08:31:15.963Z,30.1
2018-08-08T08:32:15.881Z,30.2
2018-08-08T08:33:16.480Z,30.4
2018-08-08T08:34:16.383Z,30.5
2018-08-08T08:35:16.299Z,30.4
2018-08-08T08:36:16.224Z,30.4
2018-08-08T08:37:16.379Z,30.5
2018-08-08T08:38:16.534Z,30.5
2018-08-08T08:39:19.874Z,30.7
2018-08-08T08:40:19.789Z,30.7
2018-08-08T08:41:19.731Z,30.7
2018-08-08T08:42:19.649Z,30.8
2018-08-08T08:43:20.220Z,30.8
2018-08-08T08:44:20.146Z,30.8
2018-08-08T08:45:21.054Z,30.9
2018-08-08T08:46:24.973Z,30.8
2018-08-08T08:47:24.879Z,30.8
2018-08-08T08:48:25.500Z,31
2018-08-08T08:49:25.891Z,31
2018-08-08T08:50:26.847Z,31.1
2018-08-08T08:51:27.242Z,31.1
2018-08-08T08:52:28.152Z,30.8
2018-08-08T08:53:30.962Z,30.2
2018-08-08T08:54:30.875Z,30.1
2018-08-08T08:55:30.800Z,30
2018-08-08T08:56:31.403Z,30.2
2018-08-08T08:57:31.316Z,30.3
2018-08-08T08:58:31.216Z,30.4
2018-08-08T08:59:31.799Z,30.4
2018-08-08T09:00:31.733Z,30.6
2018-08-08T09:01:32.129Z,30.7
2018-08-08T09:02:32.567Z,30.6
2018-08-08T09:03:32.817Z,30.5
2018-08-08T09:04:32.767Z,30.4
2018-08-08T09:05:32.667Z,30.2
2018-08-08T09:06:33.595Z,30.2
2018-08-08T09:07:33.912Z,30.1
2018-08-08T09:08:35.149Z,30.1
2018-08-08T09:09:35.491Z,30.2
2018-08-08T09:10:35.420Z,30.2
2018-08-08T09:11:38.516Z,30.2
2018-08-08T09:12:38.422Z,30.1
2018-08-08T09:13:38.546Z,30
2018-08-08T09:14:38.451Z,30
2018-08-08T09:15:38.361Z,30
2018-08-08T09:16:38.261Z,30
2018-08-08T09:17:38.192Z,29.9
2018-08-08T09:18:38.325Z,29.8
2018-08-08T09:19:40.164Z,30
2018-08-08T09:20:40.759Z,30.3
2018-08-08T09:21:40.702Z,30.2
2018-08-08T09:22:40.864Z,30
2018-08-08T09:23:40.779Z,29.8
2018-08-08T09:24:40.688Z,29.5
2018-08-08T09:25:40.621Z,29.3
2018-08-08T09:26:40.776Z,29.4
2018-08-08T09:27:40.714Z,29.5
2018-08-08T09:28:40.685Z,29.4
2018-08-08T09:29:41.704Z,29.7
2018-08-08T09:30:41.801Z,29.8
2018-08-08T09:31:41.904Z,29.8
2018-08-08T09:32:42.514Z,29.9
2018-08-08T09:33:42.441Z,29.7
2018-08-08T09:34:42.606Z,29.6
2018-08-08T09:35:42.532Z,29.5
2018-08-08T09:36:43.130Z,29.1
2018-08-08T09:37:46.781Z,29
2018-08-08T09:38:46.782Z,29.2
2018-08-08T09:39:47.358Z,29.1
2018-08-08T09:40:48.271Z,28.9
2018-08-08T09:41:48.183Z,28.4
2018-08-08T09:42:48.806Z,28.3
2018-08-08T09:43:48.707Z,28.8
2018-08-08T09:44:51.406Z,29.1
2018-08-08T09:45:51.324Z,29.1
2018-08-08T09:46:51.449Z,28.5
2018-08-08T09:47:51.403Z,28.3
2018-08-08T09:48:55.393Z,28.2
2018-08-08T09:49:55.751Z,28.6
2018-08-08T09:50:55.892Z,28.5
2018-08-08T09:51:56.025Z,28.2
2018-08-08T09:52:55.963Z,28.4
2018-08-08T09:53:59.673Z,28.6
2018-08-08T09:54:59.579Z,28.9
2018-08-08T09:55:59.762Z,28.9
2018-08-08T09:56:59.672Z,29.1
2018-08-08T09:58:04.594Z,28.7
2018-08-08T09:59:04.512Z,28.3
2018-08-08T10:00:05.092Z,28.1
2018-08-08T10:01:08.050Z,28.2
2018-08-08T10:02:07.963Z,28.6
2018-08-08T10:03:16.704Z,28.6
2018-08-08T10:04:16.622Z,28.6
2018-08-08T10:05:16.761Z,28.8
2018-08-08T10:06:16.648Z,28.7
2018-08-08T10:07:16.776Z,28.6
2018-08-08T10:08:19.421Z,28.7
2018-08-08T10:09:19.593Z,28.7
2018-08-08T10:10:20.141Z,28.9
2018-08-08T10:11:26.607Z,29.1
2018-08-08T10:12:26.519Z,29.2
2018-08-08T10:13:27.117Z,29.3
2018-08-08T10:14:27.033Z,29.2
2018-08-08T10:15:27.209Z,29.2
2018-08-08T10:16:27.122Z,29.4
2018-08-08T10:17:31.939Z,29.4
2018-08-08T10:18:34.738Z,29.3
2018-08-08T10:19:38.225Z,29.4
2018-08-08T10:20:44.490Z,29.3
2018-08-08T10:21:45.104Z,29
2018-08-08T10:22:45.010Z,28.9
2018-08-08T10:23:45.201Z,29
2018-08-08T10:24:45.126Z,29.2
2018-08-08T10:25:45.254Z,29.4
2018-08-08T10:26:45.353Z,29.2
2018-08-08T10:27:46.723Z,28.7
2018-08-08T10:28:50.374Z,28.5
2018-08-08T10:29:53.304Z,28.8
2018-08-08T10:30:56.950Z,29.1
2018-08-08T10:31:57.092Z,29.2
2018-08-08T10:32:56.987Z,29.1
2018-08-08T10:33:59.648Z,29
2018-08-08T10:34:59.781Z,28.9
2018-08-08T10:35:59.688Z,28.9
2018-08-08T10:37:00.823Z,29.1
2018-08-08T10:38:00.725Z,29.2
2018-08-08T10:39:04.443Z,29.3
2018-08-08T10:40:04.349Z,29.4
2018-08-08T10:41:11.733Z,29.5
2018-08-08T10:42:13.380Z,29.6
2018-08-08T10:43:13.303Z,29.8
2018-08-08T10:44:13.213Z,29.7
2018-08-08T10:45:15.115Z,29.6
2018-08-08T10:46:15.049Z,29.6
2018-08-08T10:47:18.522Z,29.4
2018-08-08T10:48:21.200Z,29.4
2018-08-08T10:49:21.120Z,29.4
2018-08-08T10:50:21.018Z,29.2
2018-08-08T10:51:24.374Z,29.1
2018-08-08T10:52:27.204Z,28.8
2018-08-08T10:53:27.794Z,28.8
2018-08-08T10:54:27.715Z,28.8
2018-08-08T10:55:37.453Z,28.6
2018-08-08T10:56:37.813Z,28.7
2018-08-08T10:57:37.759Z,28.6
2018-08-08T10:58:37.686Z,28.7
2018-08-08T10:59:38.228Z,28.7
2018-08-08T11:00:38.779Z,28.7
2018-08-08T11:01:41.868Z,28.4
2018-08-08T11:02:45.700Z,28.1
2018-08-08T11:03:45.625Z,28
2018-08-08T11:04:45.764Z,28
2018-08-08T11:05:45.998Z,28.2
2018-08-08T11:06:46.707Z,28.2
2018-08-08T11:07:46.629Z,28.2
2018-08-08T11:08:46.587Z,28.3
2018-08-08T11:09:47.178Z,28.4
2018-08-08T11:10:47.085Z,28.3
2018-08-08T11:11:48.772Z,28.2
2018-08-08T11:12:49.330Z,28.4
2018-08-08T11:13:49.266Z,28.3
2018-08-08T11:14:49.418Z,28.3
2018-08-08T11:15:49.322Z,28.3
2018-08-08T11:16:52.359Z,28.3
2018-08-08T11:17:52.447Z,28.3
2018-08-08T11:18:52.385Z,28.4
2018-08-08T11:19:52.548Z,28.5
2018-08-08T11:20:52.477Z,28.5
2018-08-08T11:21:53.277Z,28.5
2018-08-08T11:23:02.110Z,28.4
2018-08-08T11:24:02.024Z,28.5
2018-08-08T11:25:02.210Z,28.6
2018-08-08T11:26:02.132Z,28.7
2018-08-08T11:27:03.238Z,28.7
2018-08-08T11:28:03.146Z,28.7
2018-08-08T11:29:06.040Z,28.6
2018-08-08T11:30:06.969Z,28.6
2018-08-08T11:31:06.871Z,28.7
2018-08-08T11:32:11.642Z,28.7
2018-08-08T11:33:11.785Z,28.5
2018-08-08T11:34:11.715Z,28.6
2018-08-08T11:35:11.867Z,28.4
2018-08-08T11:36:14.914Z,28.5
2018-08-08T11:37:15.856Z,28.6
2018-08-08T11:38:15.763Z,28.6
2018-08-08T11:39:15.888Z,28.5
2018-08-08T11:40:15.826Z,28.3
2018-08-08T11:41:19.615Z,28.3
2018-08-08T11:42:20.406Z,28.1
2018-08-08T11:43:21.337Z,28.2
2018-08-08T11:44:24.112Z,28.2
2018-08-08T11:45:27.019Z,28.2
2018-08-08T11:46:27.167Z,28.2
2018-08-08T11:47:27.241Z,28.4
2018-08-08T11:48:27.155Z,28.5
2018-08-08T11:49:30.969Z,28.4
2018-08-08T11:50:30.905Z,28.4
2018-08-08T11:51:31.318Z,28.3
2018-08-08T11:52:31.958Z,28.3
2018-08-08T11:53:40.470Z,28.2
2018-08-08T11:54:40.366Z,28.4
2018-08-08T11:55:40.310Z,28.4
2018-08-08T11:56:41.214Z,28.4
2018-08-08T11:57:41.129Z,28.4
2018-08-08T11:58:41.049Z,28.4
2018-08-08T11:59:40.973Z,28.3
2018-08-08T12:00:40.910Z,28.3
2018-08-08T12:01:40.847Z,28.4
2018-08-08T12:02:41.217Z,28.3
2018-08-08T12:03:44.114Z,28.2
2018-08-08T12:04:44.240Z,28.3
2018-08-08T12:05:44.218Z,28.4
2018-08-08T12:06:44.339Z,28.6
2018-08-08T12:07:44.241Z,28.7
2018-08-08T12:08:44.166Z,28.6
2018-08-08T12:09:44.086Z,28.6
2018-08-08T12:10:44.000Z,28.6
2018-08-08T12:11:43.950Z,28.7
2018-08-08T12:12:44.832Z,28.6
2018-08-08T12:13:44.734Z,28.5
2018-08-08T12:14:47.565Z,28.5
2018-08-08T12:15:47.457Z,28.5
2018-08-08T12:16:47.378Z,28.7
2018-08-08T12:17:48.263Z,28.8
2018-08-08T12:18:48.159Z,28.6
2018-08-08T12:19:54.015Z,28.6
2018-08-08T12:20:54.151Z,28.7
2018-08-08T12:21:54.246Z,28.7
2018-08-08T12:22:56.022Z,28.7
2018-08-08T12:23:55.940Z,28.7
2018-08-08T12:24:55.841Z,28.7
2018-08-08T12:25:55.973Z,28.5
2018-08-08T12:26:56.873Z,28.1
2018-08-08T12:27:56.780Z,28.2
2018-08-08T12:28:56.956Z,28.3
2018-08-08T12:29:58.179Z,28.4
2018-08-08T12:30:58.096Z,28.5
2018-08-08T12:32:00.012Z,28.6
2018-08-08T12:33:00.617Z,28.8
2018-08-08T12:34:00.537Z,28.9
2018-08-08T12:35:05.986Z,29.1
2018-08-08T12:36:05.928Z,29.2
2018-08-08T12:37:06.075Z,29.3
2018-08-08T12:38:05.993Z,29.3
2018-08-08T12:39:08.928Z,29.2
2018-08-08T12:40:08.979Z,29.3
2018-08-08T12:41:08.896Z,29.4
2018-08-08T12:42:09.251Z,29.4
2018-08-08T12:43:09.612Z,29.3
2018-08-08T12:44:10.551Z,29.2
2018-08-08T12:45:13.682Z,29.2
2018-08-08T12:46:13.820Z,29.3
2018-08-08T12:47:15.186Z,29.3
2018-08-08T12:48:15.111Z,29.1
2018-08-08T12:49:15.241Z,29.1
2018-08-08T12:50:15.142Z,29.1
2018-08-08T12:51:15.262Z,29.1
2018-08-08T12:52:15.173Z,29.1
2018-08-08T12:53:21.401Z,29.2
2018-08-08T12:54:21.534Z,29.4
2018-08-08T12:55:21.443Z,29.5
2018-08-08T12:56:24.249Z,29.3
2018-08-08T12:57:24.285Z,29.3
2018-08-08T12:58:24.608Z,29.4
2018-08-08T12:59:24.508Z,29.4
2018-08-08T13:00:24.409Z,29.3
2018-08-08T13:01:24.763Z,29.3
2018-08-08T13:02:27.425Z,29.4
2018-08-08T13:03:27.810Z,29.2
2018-08-08T13:04:28.949Z,29
2018-08-08T13:05:28.845Z,29.1
2018-08-08T13:06:28.968Z,29.1
2018-08-08T13:07:28.864Z,29
2018-08-08T13:08:28.937Z,29
2018-08-08T13:09:29.669Z,28.8
2018-08-08T13:10:29.620Z,29
2018-08-08T13:11:29.771Z,29
2018-08-08T13:12:38.571Z,29.1
2018-08-08T13:13:41.898Z,29.2
2018-08-08T13:14:41.803Z,28.9
2018-08-08T13:15:42.705Z,28.9
2018-08-08T13:16:45.655Z,29
2018-08-08T13:17:45.556Z,29.1
2018-08-08T13:18:48.377Z,29.1
2018-08-08T13:19:48.271Z,29.1
2018-08-08T13:20:53.079Z,29
2018-08-08T13:21:53.003Z,28.9
2018-08-08T13:22:53.580Z,28.8
2018-08-08T13:23:57.671Z,28.6
2018-08-08T13:24:59.540Z,28.5
2018-08-08T13:25:59.485Z,28.5
2018-08-08T13:27:03.218Z,28.6
2018-08-08T13:28:03.130Z,28.7
2018-08-08T13:29:03.055Z,28.8
2018-08-08T13:30:02.954Z,28.8
2018-08-08T13:31:03.372Z,28.9
2018-08-08T13:32:06.298Z,29
2018-08-08T13:33:07.208Z,29.2
2018-08-08T13:34:08.808Z,29.3
2018-08-08T13:35:12.118Z,29.4
2018-08-08T13:36:12.026Z,29.3
2018-08-08T13:37:15.278Z,29.3
2018-08-08T13:38:15.198Z,29.4
2018-08-08T13:39:19.448Z,29.5
2018-08-08T13:40:19.825Z,29.5
2018-08-08T13:41:25.389Z,29.4